Time;durP1;ratioP1;P1;durP2;ratioP2;P2;SDS_P1;SDS_P2;PMS_P1;PMS_P2;Temp;Humidity;BMP_temperature;BMP_pressure;BME280_temperature;BME280_humidity;BME280_pressure;Samples;Min_cycle;Max_cycle;Signal;HPM_P1;HPM_P2
2021/08/04 00:00:27;;;;;;;11.63;6.45;;;;;;;22.09;56.21;96932.38;5006521;28;20062;-70
2021/08/04 00:02:54;;;;;;;10.65;6.70;;;;;;;21.83;56.10;96894.06;5005573;28;20054;-70
2021/08/04 00:05:21;;;;;;;11.30;6.90;;;;;;;22.28;56.27;96962.44;5005841;28;20197;-70
2021/08/04 00:07:48;;;;;;;10.15;6.47;;;;;;;21.90;55.96;96896.69;5005865;28;20559;-69
2021/08/04 00:10:15;;;;;;;9.25;6.35;;;;;;;22.34;55.74;96977.56;5006006;28;20054;-71
2021/08/04 00:12:42;;;;;;;9.70;6.18;;;;;;;22.27;55.91;96966.47;5005729;28;20525;-70
2021/08/04 00:15:11;;;;;;;8.10;6.05;;;;;;;22.18;56.25;96971.22;5005576;28;20062;-71
2021/08/04 00:17:39;;;;;;;11.30;6.85;;;;;;;22.11;56.64;96969.38;5006740;28;20064;-69
2021/08/04 00:20:08;;;;;;;8.98;6.18;;;;;;;22.05;56.96;96976.06;5005439;28;20115;-68
2021/08/04 00:22:35;;;;;;;9.68;6.70;;;;;;;21.77;57.07;96932.53;5006703;28;20068;-68
2021/08/04 00:25:03;;;;;;;10.43;6.55;;;;;;;21.84;57.23;96949.25;5005646;28;20058;-67
2021/08/04 00:27:30;;;;;;;7.70;6.50;;;;;;;21.75;57.34;96939.81;5005566;28;20057;-70
2021/08/04 00:29:57;;;;;;;10.15;6.28;;;;;;;22.00;57.54;96974.53;5007037;28;20145;-67
2021/08/04 00:32:24;;;;;;;11.68;6.82;;;;;;;21.89;58.04;96974.06;5006559;28;20061;-67
2021/08/04 00:34:51;;;;;;;9.75;6.28;;;;;;;21.70;57.88;96937.53;5005535;28;20082;-68
2021/08/04 00:37:18;;;;;;;12.07;6.60;;;;;;;21.77;58.17;96971.19;5005155;28;20050;-70
2021/08/04 00:39:45;;;;;;;11.15;6.32;;;;;;;21.61;58.00;96935.34;5005501;28;20068;-68
2021/08/04 00:42:12;;;;;;;9.57;6.38;;;;;;;21.91;57.88;96949.03;5004869;28;20077;-68
2021/08/04 00:44:39;;;;;;;10.05;6.55;;;;;;;22.02;57.47;96989.00;5005160;28;20046;-67
2021/08/04 00:47:06;;;;;;;8.73;6.35;;;;;;;21.57;57.75;96912.13;5005119;28;20144;-67
2021/08/04 00:49:33;;;;;;;9.48;6.18;;;;;;;21.46;58.10;96922.91;5004984;28;20068;-67
2021/08/04 00:52:00;;;;;;;10.48;6.40;;;;;;;21.77;58.41;96972.00;5005500;28;20425;-68
2021/08/04 00:54:27;;;;;;;9.15;6.75;;;;;;;21.62;58.98;96970.78;5006610;28;20116;-68
2021/08/04 00:56:54;;;;;;;11.88;6.82;;;;;;;21.60;59.27;96978.91;5005051;28;20516;-69
2021/08/04 00:59:20;;;;;;;11.73;7.07;;;;;;;21.58;59.26;96969.28;5006345;28;20049;-69
2021/08/04 01:01:49;;;;;;;10.02;6.05;;;;;;;21.51;59.73;96964.66;5005231;28;20053;-69
2021/08/04 01:04:35;;;;;;;10.52;6.95;;;;;;;21.53;59.40;96962.16;5006529;28;20856;-68
2021/08/04 01:07:10;;;;;;;8.35;5.60;;;;;;;21.58;59.27;96967.25;5006453;28;20061;-69
2021/08/04 01:09:46;;;;;;;11.75;6.10;;;;;;;21.35;59.35;96922.41;5004586;28;20053;-69
2021/08/04 01:12:26;;;;;;;11.18;6.53;;;;;;;21.68;59.29;96966.19;5005092;28;20057;-68
2021/08/04 01:15:00;;;;;;;11.77;6.35;;;;;;;21.60;59.94;96967.63;5005110;28;20053;-69
2021/08/04 01:17:27;;;;;;;9.20;6.13;;;;;;;21.24;59.96;96910.63;5004680;28;20551;-69
2021/08/04 01:20:12;;;;;;;8.18;6.22;;;;;;;21.72;59.78;96961.22;5006053;28;20054;-69
2021/08/04 01:22:52;;;;;;;11.00;6.38;;;;;;;21.70;59.78;96966.53;5006053;28;20534;-69
2021/08/04 01:25:25;;;;;;;11.15;7.00;;;;;;;21.30;59.44;96897.59;5005600;28;20100;-69
2021/08/04 01:28:20;;;;;;;8.75;5.50;;;;;;;21.62;60.55;96979.25;5004311;28;20054;-69
2021/08/04 01:30:50;;;;;;;11.07;7.32;;;;;;;21.24;62.17;96975.44;5002150;28;20077;-69
2021/08/04 01:33:17;;;;;;;12.23;8.00;;;;;;;21.51;61.61;96975.94;5006395;28;20052;-69
2021/08/04 01:35:45;;;;;;;12.32;8.15;;;;;;;21.38;60.79;96941.25;5004343;28;20415;-69
2021/08/04 01:38:16;;;;;;;12.25;6.90;;;;;;;21.74;60.30;96972.88;5004306;28;20754;-69
2021/08/04 01:40:46;;;;;;;9.00;6.18;;;;;;;21.89;59.82;96967.66;5005180;28;20057;-69
2021/08/04 01:43:14;;;;;;;11.45;6.78;;;;;;;21.88;59.67;96966.84;5005200;28;20054;-69
2021/08/04 01:45:42;;;;;;;11.10;6.45;;;;;;;21.14;59.90;96869.44;5005286;28;20057;-68
2021/08/04 01:48:10;;;;;;;10.20;5.88;;;;;;;21.83;59.96;96970.22;5005942;28;20289;-69
2021/08/04 01:50:38;;;;;;;10.82;6.90;;;;;;;21.76;60.37;96969.63;5005313;28;20057;-68
2021/08/04 01:53:05;;;;;;;12.13;7.35;;;;;;;21.38;60.57;96929.97;5005724;28;20063;-70
2021/08/04 01:55:32;;;;;;;7.32;6.30;;;;;;;21.21;61.11;96936.88;5003830;28;20053;-69
2021/08/04 01:57:59;;;;;;;9.32;6.88;;;;;;;21.48;61.42;96982.44;5004221;28;20054;-70
2021/08/04 02:00:26;;;;;;;8.18;6.38;;;;;;;21.21;61.30;96939.69;5004095;28;20061;-70
2021/08/04 02:02:53;;;;;;;11.40;6.57;;;;;;;21.20;61.77;96932.47;5005323;28;20088;-70
2021/08/04 02:05:21;;;;;;;10.30;6.93;;;;;;;21.23;61.76;96934.38;5003706;28;20424;-69
2021/08/04 02:07:47;;;;;;;9.48;7.13;;;;;;;21.54;61.78;96980.69;5003440;28;20056;-70
2021/08/04 02:10:20;;;;;;;8.25;6.47;;;;;;;21.33;61.46;96953.06;5005457;28;20077;-70
2021/08/04 02:12:55;;;;;;;9.30;6.75;;;;;;;20.10;61.37;96741.44;5003896;28;20058;-70
2021/08/04 02:15:23;;;;;;;10.23;7.00;;;;;;;21.26;61.83;96944.00;5003436;28;20622;-69
2021/08/04 02:18:01;;;;;;;10.43;6.88;;;;;;;21.47;62.28;96975.22;5003041;28;20160;-69
2021/08/04 02:20:38;;;;;;;13.70;7.38;;;;;;;21.57;62.17;96982.59;5003176;28;20124;-69
2021/08/04 02:23:12;;;;;;;11.35;6.50;;;;;;;21.39;62.19;96945.63;5004085;28;20058;-70
2021/08/04 02:26:00;;;;;;;11.63;7.20;;;;;;;21.62;62.55;96999.00;5003321;28;20058;-70
2021/08/04 02:28:31;;;;;;;9.68;6.38;;;;;;;21.47;62.93;97002.59;5003273;28;20058;-70
2021/08/04 02:31:00;;;;;;;9.82;6.60;;;;;;;21.37;63.63;96998.06;5004676;28;20049;-68
2021/08/04 02:33:28;;;;;;;12.45;7.20;;;;;;;20.97;63.71;96929.88;5002971;28;20467;-70
2021/08/04 02:35:55;;;;;;;13.75;7.82;;;;;;;21.31;63.93;96992.16;5002895;28;20064;-68
2021/08/04 02:38:22;;;;;;;11.98;7.63;;;;;;;21.27;64.58;96987.84;5003049;28;20054;-69
2021/08/04 02:40:49;;;;;;;10.88;7.57;;;;;;;21.31;64.49;96983.69;5004816;28;20054;-69
2021/08/04 02:43:19;;;;;;;13.73;7.68;;;;;;;20.97;64.69;96946.75;5002981;28;20058;-69
2021/08/04 02:45:46;;;;;;;16.33;7.07;;;;;;;21.30;64.89;96984.94;5002576;28;20054;-67
2021/08/04 02:48:14;;;;;;;14.20;6.93;;;;;;;20.84;64.99;96912.06;5003045;28;20515;-70
2021/08/04 02:50:47;;;;;;;11.93;7.18;;;;;;;21.20;65.26;96977.53;5002717;28;20061;-70
2021/08/04 02:53:18;;;;;;;11.93;7.13;;;;;;;20.86;65.71;96938.56;5004145;28;20528;-70
2021/08/04 02:55:49;;;;;;;12.70;7.60;;;;;;;20.96;65.69;96967.69;5003551;28;20505;-67
2021/08/04 02:58:15;;;;;;;11.20;7.55;;;;;;;20.94;65.86;96953.25;5002743;28;20074;-67
2021/08/04 03:00:42;;;;;;;14.07;8.15;;;;;;;20.92;66.75;96978.22;5002564;28;20053;-64
2021/08/04 03:03:10;;;;;;;12.82;7.25;;;;;;;21.01;67.77;97009.41;5002941;28;20061;-66
2021/08/04 03:05:37;;;;;;;10.82;7.45;;;;;;;21.11;67.75;97008.38;5004448;28;20173;-67
2021/08/04 03:08:04;;;;;;;13.05;7.45;;;;;;;21.16;67.44;97005.03;5002226;28;20089;-67
2021/08/04 03:10:31;;;;;;;12.98;8.13;;;;;;;21.18;66.54;97019.47;5004148;28;20068;-66
2021/08/04 03:12:58;;;;;;;14.07;8.30;;;;;;;20.72;67.00;96971.91;5002415;28;20058;-68
2021/08/04 03:15:25;;;;;;;11.25;7.47;;;;;;;20.71;67.34;96992.81;5002176;28;20133;-67
2021/08/04 03:17:52;;;;;;;16.17;8.40;;;;;;;21.04;67.05;97027.47;5003330;28;20145;-67
2021/08/04 03:20:19;;;;;;;14.90;7.97;;;;;;;21.04;67.21;97011.34;5001862;28;20503;-67
2021/08/04 03:22:48;;;;;;;60.10;16.13;;;;;;;20.68;68.82;97019.84;5003030;28;20137;-67
2021/08/04 03:25:18;;;;;;;23.77;9.10;;;;;;;20.82;68.73;97013.06;5004134;28;20054;-68
2021/08/04 03:27:45;;;;;;;27.30;9.35;;;;;;;20.86;68.59;97013.78;5003592;28;20046;-68
2021/08/04 03:30:14;;;;;;;18.50;8.68;;;;;;;20.91;68.39;96999.19;5002054;28;20060;-68
2021/08/04 03:32:41;;;;;;;18.75;9.15;;;;;;;21.16;68.29;97007.84;5003916;28;20068;-68
2021/08/04 03:35:10;;;;;;;14.95;7.95;;;;;;;21.22;68.40;97020.16;5002270;28;20615;-68
2021/08/04 03:37:37;;;;;;;15.82;8.50;;;;;;;21.25;68.67;97013.66;5002016;28;20493;-69
2021/08/04 03:40:04;;;;;;;12.82;8.65;;;;;;;21.39;68.77;97021.72;5002593;28;20153;-68
2021/08/04 03:42:31;;;;;;;13.70;8.02;;;;;;;21.48;68.89;97016.25;5002040;28;20058;-69
2021/08/04 03:44:58;;;;;;;16.75;8.50;;;;;;;20.92;69.16;96975.41;5002283;28;20107;-68
2021/08/04 03:47:25;;;;;;;15.68;8.43;;;;;;;20.62;72.01;97015.16;5001951;28;20444;-69
2021/08/04 03:49:52;;;;;;;13.75;8.80;;;;;;;20.13;72.38;96954.31;5002201;28;20137;-69
2021/08/04 03:52:19;;;;;;;18.85;9.20;;;;;;;20.68;72.20;97013.41;5002099;28;20148;-69
2021/08/04 03:54:46;;;;;;;13.13;8.57;;;;;;;20.74;70.43;96986.31;5002232;28;20060;-69
2021/08/04 03:57:13;;;;;;;13.68;8.32;;;;;;;20.85;71.14;97012.97;5002686;28;20060;-68
2021/08/04 03:59:40;;;;;;;28.33;10.25;;;;;;;20.59;72.26;97018.84;5003432;28;20054;-69
2021/08/04 04:02:06;;;;;;;33.10;12.85;;;;;;;19.70;74.91;96956.44;5001483;28;20046;-67
2021/08/04 04:04:33;;;;;;;37.65;12.68;;;;;;;19.99;73.42;96949.00;5001860;28;20053;-68
2021/08/04 04:07:01;;;;;;;36.90;12.82;;;;;;;20.85;71.35;97018.63;5001771;28;20133;-69
2021/08/04 04:09:29;;;;;;;33.40;12.95;;;;;;;20.09;72.21;96936.75;5001843;28;20080;-66
2021/08/04 04:11:56;;;;;;;19.27;9.43;;;;;;;20.26;73.46;97008.72;5002516;28;20050;-68
2021/08/04 04:14:23;;;;;;;14.23;8.98;;;;;;;20.42;73.76;97022.84;5002016;28;20165;-71
2021/08/04 04:16:51;;;;;;;12.77;9.35;;;;;;;20.32;73.43;96990.91;5001465;28;20081;-71
2021/08/04 04:19:18;;;;;;;13.32;9.90;;;;;;;20.51;72.06;96981.63;5003658;28;20058;-71
2021/08/04 04:21:45;;;;;;;14.48;9.65;;;;;;;21.07;71.95;97018.91;5001999;28;20049;-69
2021/08/04 04:24:16;;;;;;;19.13;9.50;;;;;;;21.43;70.28;97022.44;5002314;28;20054;-70
2021/08/04 04:26:43;;;;;;;14.82;8.65;;;;;;;21.80;69.04;97021.88;5001879;28;20054;-69
2021/08/04 04:29:10;;;;;;;15.48;9.98;;;;;;;22.03;68.25;97012.38;5001564;28;20058;-69
2021/08/04 04:31:37;;;;;;;11.32;8.80;;;;;;;22.31;68.66;97039.78;5003047;28;20050;-70
2021/08/04 04:34:03;;;;;;;15.13;9.50;;;;;;;22.34;68.61;97005.81;5003633;28;20058;-70
2021/08/04 04:36:30;;;;;;;20.33;10.27;;;;;;;22.13;68.22;96935.88;5001899;28;20108;-70
2021/08/04 04:38:57;;;;;;;24.38;10.10;;;;;;;22.91;67.58;97038.78;5001222;28;20064;-69
2021/08/04 04:41:24;;;;;;;22.30;9.98;;;;;;;22.73;67.04;96998.22;5003345;28;20053;-70
2021/08/04 04:43:51;;;;;;;18.90;10.00;;;;;;;23.33;66.68;97047.94;5001860;28;20049;-71
2021/08/04 04:46:18;;;;;;;17.25;9.70;;;;;;;23.59;65.92;97032.50;5004397;28;20057;-71
2021/08/04 04:48:45;;;;;;;14.32;9.80;;;;;;;23.50;65.55;97006.97;5005369;28;20128;-68
2021/08/04 04:51:12;;;;;;;33.45;11.75;;;;;;;23.80;65.12;97031.78;5005353;28;20054;-69
2021/08/04 04:53:38;;;;;;;27.48;11.23;;;;;;;23.65;65.56;97039.16;5005770;28;20057;-70
2021/08/04 04:56:06;;;;;;;18.88;10.52;;;;;;;23.49;66.73;97039.34;5006281;28;20432;-70
2021/08/04 04:58:32;;;;;;;19.85;9.43;;;;;;;23.81;64.54;97044.66;5004991;28;20445;-70
2021/08/04 05:00:59;;;;;;;15.20;9.70;;;;;;;23.99;63.56;97039.22;5005093;28;20064;-71
2021/08/04 05:03:26;;;;;;;22.40;10.07;;;;;;;23.88;63.23;96999.16;5004950;28;20140;-71
2021/08/04 05:05:53;;;;;;;23.92;11.52;;;;;;;24.37;63.40;97036.19;5005798;28;20308;-71
2021/08/04 05:08:20;;;;;;;14.52;9.77;;;;;;;24.69;62.39;97035.81;5006485;28;20099;-70
2021/08/04 05:10:48;;;;;;;26.58;11.05;;;;;;;23.41;61.55;96817.44;5005253;28;20120;-71
2021/08/04 05:13:15;;;;;;;19.13;10.32;;;;;;;24.88;61.29;97023.31;5005392;28;20057;-71
2021/08/04 05:15:42;;;;;;;16.92;10.23;;;;;;;24.49;60.69;96959.66;5004866;28;20588;-72
2021/08/04 05:18:09;;;;;;;26.67;10.15;;;;;;;24.94;60.16;97025.06;5005854;28;20061;-72
2021/08/04 05:20:36;;;;;;;18.33;9.68;;;;;;;24.93;60.63;97057.50;5006362;28;20508;-72
2021/08/04 05:23:03;;;;;;;13.93;8.85;;;;;;;25.01;60.70;97053.13;5005929;28;20159;-71
2021/08/04 05:25:29;;;;;;;17.13;9.32;;;;;;;24.74;59.80;96984.19;5006185;28;20085;-71
2021/08/04 05:27:56;;;;;;;13.45;8.50;;;;;;;25.19;59.98;97046.75;5004376;28;20060;-71
2021/08/04 05:30:23;;;;;;;19.52;10.98;;;;;;;25.06;58.89;97010.00;5004108;28;20416;-69
2021/08/04 05:32:50;;;;;;;13.90;8.80;;;;;;;25.18;59.05;97017.59;5006289;28;20149;-71
2021/08/04 05:35:16;;;;;;;16.13;9.73;;;;;;;24.86;59.80;96986.94;5005644;28;20046;-71
2021/08/04 05:37:43;;;;;;;14.30;10.13;;;;;;;24.91;60.33;97008.97;5003918;28;20065;-70
2021/08/04 05:40:14;;;;;;;12.88;8.75;;;;;;;25.05;58.86;96971.53;5004151;28;20081;-70
2021/08/04 05:42:41;;;;;;;17.60;9.73;;;;;;;25.76;58.23;97045.19;5004069;28;20148;-71
2021/08/04 05:45:09;;;;;;;17.60;9.73;;;;;;;25.92;58.15;97042.88;5005723;28;20058;-71
2021/08/04 05:47:36;;;;;;;22.65;10.00;;;;;;;25.88;57.37;96996.00;5005485;28;20050;-70
2021/08/04 05:50:04;;;;;;;20.08;10.25;;;;;;;26.41;57.02;97051.25;5003803;28;20500;-72
2021/08/04 05:52:31;;;;;;;21.30;10.48;;;;;;;26.60;56.69;97056.44;5006105;28;20543;-74
2021/08/04 05:54:57;;;;;;;16.20;9.48;;;;;;;26.56;56.36;97035.13;5005955;28;20066;-73
2021/08/04 05:57:24;;;;;;;15.80;10.02;;;;;;;26.40;56.08;96987.97;5003401;28;20599;-71
2021/08/04 05:59:51;;;;;;;13.90;10.18;;;;;;;26.40;55.80;96944.53;5002022;28;20512;-70
2021/08/04 06:02:18;;;;;;;16.48;10.82;;;;;;;27.28;54.83;97052.03;4989106;28;20047;-70
2021/08/04 06:04:45;;;;;;;26.15;11.32;;;;;;;27.24;55.81;97056.28;4985434;28;20565;-69
2021/08/04 06:07:12;;;;;;;16.25;10.73;;;;;;;26.15;58.06;97004.56;4998403;28;20077;-62
2021/08/04 06:09:38;;;;;;;17.42;10.77;;;;;;;26.70;58.31;97062.91;5005053;28;20436;-69
2021/08/04 06:12:06;;;;;;;21.67;10.88;;;;;;;24.57;56.81;96691.84;5004881;28;20057;-63
2021/08/04 06:14:32;;;;;;;16.83;10.90;;;;;;;27.12;56.27;97031.69;5004825;28;20054;-71
2021/08/04 06:16:59;;;;;;;14.43;10.48;;;;;;;27.60;54.71;97054.06;5004664;28;20060;-63
2021/08/04 06:19:26;;;;;;;19.80;12.35;;;;;;;27.34;54.95;96981.03;4991005;28;20058;-68
2021/08/04 06:21:53;;;;;;;19.48;11.48;;;;;;;28.10;53.86;97044.63;4984979;28;20429;-68
2021/08/04 06:24:20;;;;;;;18.00;10.60;;;;;;;27.95;54.06;97001.03;4985352;28;20056;-61
2021/08/04 06:26:47;;;;;;;12.77;10.98;;;;;;;28.25;53.79;97038.16;4995113;28;20061;-67
2021/08/04 06:29:14;;;;;;;17.63;10.38;;;;;;;27.47;54.93;96973.84;5004158;28;20532;-68
2021/08/04 06:31:41;;;;;;;15.43;11.55;;;;;;;27.65;56.17;97002.19;5003912;28;20080;-66
2021/08/04 06:34:07;;;;;;;15.57;11.07;;;;;;;27.87;55.37;97036.81;5004205;28;20558;-69
2021/08/04 06:36:34;;;;;;;15.57;11.02;;;;;;;28.24;54.70;97031.66;5003913;28;20054;-60
2021/08/04 06:39:01;;;;;;;13.48;10.73;;;;;;;28.50;53.95;97034.81;5002618;28;20188;-68
2021/08/04 06:41:28;;;;;;;13.85;10.35;;;;;;;28.50;54.46;97035.56;4989985;28;20058;-61
2021/08/04 06:43:56;;;;;;;15.45;10.80;;;;;;;28.74;54.23;97033.44;4984244;28;20540;-68
2021/08/04 06:46:23;;;;;;;15.05;11.45;;;;;;;28.90;53.44;97032.94;4984177;28;20046;-62
2021/08/04 06:48:51;;;;;;;12.82;11.52;;;;;;;28.12;55.10;96979.38;4984743;28;20057;-68
2021/08/04 06:51:20;;;;;;;16.17;10.00;;;;;;;28.79;53.82;97012.00;4982824;28;20485;-69
2021/08/04 06:53:50;;;;;;;18.42;11.43;;;;;;;27.69;54.80;96897.47;4984719;28;20101;-69
2021/08/04 06:56:17;;;;;;;18.83;11.93;;;;;;;27.63;55.00;96833.16;4995544;28;20066;-70
2021/08/04 06:58:43;;;;;;;17.75;11.00;;;;;;;28.45;52.67;96916.53;5001868;28;20065;-62
2021/08/04 07:01:10;;;;;;;15.82;11.48;;;;;;;28.20;52.80;96917.09;5002199;28;20050;-61
2021/08/04 07:03:38;;;;;;;18.20;10.75;;;;;;;28.71;53.15;96980.25;5003413;28;20056;-61
2021/08/04 07:06:08;;;;;;;13.73;10.35;;;;;;;29.13;51.29;96959.97;5002966;28;20060;-61
2021/08/04 07:08:36;;;;;;;15.10;11.07;;;;;;;29.46;50.37;96954.75;5001831;28;20056;-69
2021/08/04 07:11:04;;;;;;;14.90;10.77;;;;;;;30.25;50.13;97027.50;5001113;28;20053;-70
2021/08/04 07:13:31;;;;;;;26.30;15.45;;;;;;;30.05;50.14;97012.41;4997648;28;20058;-71
2021/08/04 07:15:58;;;;;;;17.30;10.82;;;;;;;29.96;50.82;97015.41;4997644;28;20081;-70
2021/08/04 07:18:24;;;;;;;15.95;10.57;;;;;;;30.08;50.71;97017.91;4990799;28;20058;-62
2021/08/04 07:20:51;;;;;;;17.33;10.50;;;;;;;30.13;49.57;97014.31;4993719;28;20058;-62
2021/08/04 07:23:18;;;;;;;27.35;14.13;;;;;;;29.73;51.37;97008.63;4992160;28;20527;-60
2021/08/04 07:25:45;;;;;;;15.88;10.32;;;;;;;30.08;50.17;97000.75;5002556;28;20058;-61
2021/08/04 07:28:12;;;;;;;17.50;11.35;;;;;;;29.91;50.20;97016.91;4995114;28;20058;-64
2021/08/04 07:30:39;;;;;;;24.38;12.70;;;;;;;29.49;51.75;97016.56;4991086;28;20088;-62
2021/08/04 07:33:07;;;;;;;19.83;11.50;;;;;;;29.86;50.80;97014.75;5002098;28;20144;-60
2021/08/04 07:35:33;;;;;;;14.85;10.98;;;;;;;30.12;49.37;96989.91;5000888;28;20054;-61
2021/08/04 07:38:00;;;;;;;15.77;11.15;;;;;;;29.76;48.55;96893.38;4984717;28;20169;-61
2021/08/04 07:40:27;;;;;;;15.60;11.07;;;;;;;29.50;49.76;96930.41;5000539;28;20065;-64
2021/08/04 07:42:54;;;;;;;14.10;10.65;;;;;;;28.16;50.73;96794.00;4998288;28;20041;-61
2021/08/04 07:45:21;;;;;;;19.92;13.05;;;;;;;29.43;51.54;96978.56;4987574;28;20050;-70
2021/08/04 07:47:47;;;;;;;18.95;12.27;;;;;;;29.93;49.76;97005.78;4982738;28;20081;-64
2021/08/04 07:50:15;;;;;;;14.45;11.02;;;;;;;30.10;50.13;97012.47;4990620;28;20054;-63
2021/08/04 07:52:42;;;;;;;15.60;12.20;;;;;;;30.04;48.98;96954.47;4984345;28;20058;-65
2021/08/04 07:55:13;;;;;;;15.23;11.10;;;;;;;30.61;48.46;97001.13;4990877;28;20471;-63
2021/08/04 07:57:40;;;;;;;16.27;10.90;;;;;;;30.74;48.52;97007.25;5001788;28;20144;-61
2021/08/04 08:00:08;;;;;;;13.80;10.35;;;;;;;30.90;47.87;97008.72;5002724;28;20053;-63
2021/08/04 08:02:34;;;;;;;13.35;9.95;;;;;;;30.98;47.36;96982.00;4982908;28;20540;-64
2021/08/04 08:05:01;;;;;;;18.00;10.68;;;;;;;31.07;47.18;97000.28;4992085;28;20106;-68
2021/08/04 08:07:28;;;;;;;13.32;10.57;;;;;;;30.49;47.78;96973.69;4981372;28;20437;-67
2021/08/04 08:09:55;;;;;;;14.82;11.77;;;;;;;30.98;47.14;96992.69;4984302;28;20086;-60
2021/08/04 08:12:21;;;;;;;18.08;11.90;;;;;;;30.67;48.02;97001.97;5003175;28;20068;-68
2021/08/04 08:14:48;;;;;;;17.90;10.80;;;;;;;30.62;47.84;96994.13;5003515;28;20056;-64
2021/08/04 08:17:16;;;;;;;16.75;11.25;;;;;;;31.05;46.92;96997.91;4982731;28;20105;-61
2021/08/04 08:19:46;;;;;;;19.00;10.77;;;;;;;30.86;46.83;96983.19;4994436;28;20050;-59
2021/08/04 08:22:13;;;;;;;17.75;11.18;;;;;;;31.23;46.46;96996.75;4996805;28;20050;-68
2021/08/04 08:24:40;;;;;;;17.63;11.32;;;;;;;31.37;46.31;96990.91;5008314;28;20089;-60
2021/08/04 08:27:06;;;;;;;17.02;10.63;;;;;;;31.52;45.00;96962.88;5004723;28;20125;-61
2021/08/04 08:29:33;;;;;;;14.38;11.00;;;;;;;31.78;44.99;96979.97;4992413;28;20054;-62
2021/08/04 08:32:00;;;;;;;16.27;10.80;;;;;;;31.94;44.48;96973.56;4996846;28;20053;-60
2021/08/04 08:34:27;;;;;;;14.48;10.85;;;;;;;32.21;44.10;96975.75;4985746;28;20349;-64
2021/08/04 08:36:54;;;;;;;15.55;11.38;;;;;;;31.80;44.80;96983.91;4996572;28;20060;-71
2021/08/04 08:39:20;;;;;;;13.48;11.70;;;;;;;30.85;45.90;96910.13;5003171;28;20049;-71
2021/08/04 08:41:49;;;;;;;19.88;12.02;;;;;;;31.09;46.36;96937.59;5006896;28;20046;-69
2021/08/04 08:44:16;;;;;;;13.82;11.02;;;;;;;31.54;44.82;96939.44;5005302;28;20046;-68
2021/08/04 08:46:43;;;;;;;14.52;11.57;;;;;;;31.86;45.11;96970.41;4990644;28;20058;-66
2021/08/04 08:49:10;;;;;;;15.98;11.23;;;;;;;32.01;43.43;96907.16;4989534;28;20046;-67
2021/08/04 08:51:37;;;;;;;14.38;10.57;;;;;;;32.34;43.50;96958.84;4992131;28;20064;-70
2021/08/04 08:54:04;;;;;;;21.45;14.70;;;;;;;31.84;43.34;96854.72;4990339;28;20050;-66
2021/08/04 08:56:30;;;;;;;18.67;11.52;;;;;;;32.68;42.11;96943.28;5005279;28;20062;-68
2021/08/04 08:58:57;;;;;;;17.60;10.25;;;;;;;31.72;43.65;96901.78;5006769;28;20324;-66
2021/08/04 09:01:32;;;;;;;18.80;11.70;;;;;;;32.52;42.45;96923.97;5006159;28;20058;-70
2021/08/04 09:04:02;;;;;;;17.27;10.82;;;;;;;32.32;41.18;96836.06;4994579;28;20053;-67
2021/08/04 09:06:52;;;;;;;15.30;10.05;;;;;;;32.47;41.49;96907.50;5002003;28;20514;-63
2021/08/04 09:09:27;;;;;;;14.27;9.82;;;;;;;32.61;41.20;96909.38;4997128;28;20051;-61
2021/08/04 09:12:13;;;;;;;13.93;9.68;;;;;;;32.83;41.18;96926.59;4984208;28;20098;-65
2021/08/04 09:14:42;;;;;;;16.38;11.18;;;;;;;31.70;41.17;96684.56;4984627;28;20051;-58
2021/08/04 09:17:15;;;;;;;14.40;10.85;;;;;;;33.06;40.18;96859.28;4984182;28;20124;-60
2021/08/04 09:19:45;;;;;;;16.77;12.33;;;;;;;32.84;40.49;96904.41;4984025;28;20136;-64
2021/08/04 09:22:27;;;;;;;15.50;10.90;;;;;;;33.33;40.48;96904.38;4985896;28;20053;-65
2021/08/04 09:25:11;;;;;;;18.00;11.02;;;;;;;33.05;41.37;96880.69;4986738;28;20141;-65
2021/08/04 09:27:48;;;;;;;14.57;10.50;;;;;;;33.62;40.13;96900.16;4986355;28;20126;-67
2021/08/04 09:30:32;;;;;;;17.13;11.15;;;;;;;33.57;39.49;96829.91;4984182;28;20058;-66
2021/08/04 09:33:12;;;;;;;;;;;;;;;33.69;39.25;96894.63;4985340;28;20061;-66
2021/08/04 09:35:52;;;;;;;17.17;11.50;;;;;;;33.49;40.54;96892.09;4985967;28;19926;-66
2021/08/04 09:38:19;;;;;;;14.25;10.25;;;;;;;34.10;38.83;96891.09;4984895;28;20124;-66
2021/08/04 09:41:07;;;;;;;13.13;10.20;;;;;;;34.04;38.33;96884.56;4984346;28;20050;-66
2021/08/04 09:43:34;;;;;;;11.23;10.02;;;;;;;33.54;38.93;96891.28;4985945;28;20057;-65
2021/08/04 09:46:01;;;;;;;14.00;9.95;;;;;;;33.72;38.98;96882.06;4985205;28;20050;-66
2021/08/04 09:48:28;;;;;;;16.65;11.05;;;;;;;33.88;38.31;96856.66;4985555;28;20108;-65
2021/08/04 09:51:03;;;;;;;16.27;9.93;;;;;;;34.47;37.66;96882.75;4984048;28;20066;-66
2021/08/04 09:53:33;;;;;;;15.93;10.25;;;;;;;34.61;37.31;96876.63;4983974;28;20098;-66
2021/08/04 09:56:15;;;;;;;15.43;9.63;;;;;;;35.13;35.61;96879.34;4999794;28;20056;-69
2021/08/04 09:58:48;;;;;;;18.15;10.45;;;;;;;35.01;35.47;96840.44;5004862;28;20058;-61
2021/08/04 10:01:17;;;;;;;15.43;10.38;;;;;;;35.49;34.26;96869.28;5004998;28;20081;-60
2021/08/04 10:04:07;;;;;;;20.05;10.07;;;;;;;35.19;35.12;96862.75;5004935;28;20647;-62
2021/08/04 10:06:35;;;;;;;15.32;9.35;;;;;;;35.38;34.61;96857.88;5005146;28;20057;-61
2021/08/04 10:09:04;;;;;;;14.75;9.48;;;;;;;35.37;33.35;96827.50;5004724;28;20057;-61
2021/08/04 10:11:31;;;;;;;17.83;10.10;;;;;;;35.52;34.02;96850.91;5004884;28;20061;-59
2021/08/04 10:13:59;;;;;;;14.38;9.00;;;;;;;35.96;32.79;96833.06;5004841;28;20556;-59
2021/08/04 10:16:34;;;;;;;14.10;9.57;;;;;;;36.35;32.60;96807.31;4987978;28;20064;-59
2021/08/04 10:19:04;;;;;;;12.70;9.43;;;;;;;36.51;32.60;96831.47;5005024;28;20148;-60
2021/08/04 10:21:35;;;;;;;20.00;10.10;;;;;;;36.39;33.46;96833.75;5003489;28;20056;-59
2021/08/04 10:24:04;;;;;;;15.65;11.63;;;;;;;36.17;33.53;96836.94;5005410;28;20054;-60
2021/08/04 10:26:34;;;;;;;15.38;11.18;;;;;;;36.13;33.19;96842.25;5003371;28;20154;-61
2021/08/04 10:29:01;;;;;;;15.10;11.45;;;;;;;35.51;34.13;96834.94;5004340;28;20152;-60
2021/08/04 10:31:28;;;;;;;13.68;11.25;;;;;;;34.70;35.14;96815.06;5003140;28;20065;-59
2021/08/04 10:33:58;;;;;;;16.38;9.75;;;;;;;34.12;36.14;96828.03;5004643;28;20844;-60
2021/08/04 10:36:33;;;;;;;18.33;9.63;;;;;;;34.28;35.92;96795.50;5004194;28;20410;-60
2021/08/04 10:39:06;;;;;;;13.90;9.15;;;;;;;34.25;36.45;96836.84;5004080;28;20054;-60
2021/08/04 10:41:33;;;;;;;13.05;9.43;;;;;;;33.99;36.36;96827.88;5004143;28;20053;-60
2021/08/04 10:44:02;;;;;;;18.45;10.85;;;;;;;34.07;36.44;96815.28;5003927;28;20096;-60
2021/08/04 10:46:29;;;;;;;16.30;10.02;;;;;;;34.14;36.01;96825.44;5002571;28;20480;-58
2021/08/04 10:49:02;;;;;;;13.65;9.25;;;;;;;34.53;35.64;96817.31;5004233;28;20147;-65
2021/08/04 10:51:31;;;;;;;17.67;10.77;;;;;;;34.63;35.07;96819.31;5004391;28;20054;-67
2021/08/04 10:54:00;;;;;;;15.75;9.23;;;;;;;34.83;34.39;96809.44;5003645;28;20065;-68
2021/08/04 10:56:50;;;;;;;15.40;10.15;;;;;;;34.83;34.52;96812.31;5003395;28;20643;-67
2021/08/04 10:59:24;;;;;;;15.68;9.50;;;;;;;34.28;34.60;96802.06;4996457;28;20513;-65
2021/08/04 11:01:53;;;;;;;16.60;10.27;;;;;;;34.33;34.52;96797.56;5003713;28;20050;-67
2021/08/04 11:04:29;;;;;;;14.07;9.65;;;;;;;34.72;34.08;96798.03;5003638;28;20115;-66
2021/08/04 11:07:08;;;;;;;20.75;11.50;;;;;;;35.36;33.00;96797.16;5003703;28;20053;-67
2021/08/04 11:09:42;;;;;;;26.00;15.80;;;;;;;35.81;32.09;96792.34;5004158;28;20136;-66
2021/08/04 11:12:17;;;;;;;30.80;15.95;;;;;;;35.92;31.31;96797.97;5003332;28;20077;-67
2021/08/04 11:15:18;;;;;;;16.63;10.40;;;;;;;35.43;32.06;96790.75;5002227;28;20602;-66
2021/08/04 11:18:05;;;;;;;16.83;8.60;;;;;;;35.90;31.42;96783.31;5003269;28;20950;-65
2021/08/04 11:20:34;;;;;;;15.77;8.68;;;;;;;35.46;31.00;96795.44;5001341;28;20064;-66
2021/08/04 11:23:03;;;;;;;17.05;9.70;;;;;;;35.48;31.41;96786.25;5002361;28;20359;-66
2021/08/04 11:25:35;;;;;;;15.77;8.77;;;;;;;35.95;30.97;96779.59;4993849;28;20053;-68
2021/08/04 11:28:05;;;;;;;11.23;8.85;;;;;;;36.37;30.23;96775.78;4982796;28;20080;-69
2021/08/04 11:30:55;;;;;;;20.08;9.75;;;;;;;36.77;30.19;96784.59;4982836;28;20054;-67